This demonstration page uses our WeatherBlox Daily Observations layout. Learn more.

36.17497, -115.13722

Hourly Observations for April 15, 2018

Temp ( °F °C ) Dew Point ( °F °C ) Humidity (%) Winds ( mph kmh ) Pressure ( in mb ) Visibility ( mi km ) Precip ( " mm )
12:53 am 00:53 Clear 60 15.6 20 -6.7 21 21 NNW 6 9 30.06 1018 10 16.09344 0 0
1:53 am 01:53 Clear 58 14.4 23 -5 26 26 N 3 6 30.03 1017 10 16.09344 0 0
2:53 am 02:53 Clear 57 13.9 21 -6.1 25 25 NNW 6 9 30.03 1017 10 16.09344 0 0
3:53 am 03:53 Clear 56 13.3 22 -5.6 27 27 NNW 3 6 30 1016 10 16.09344 0 0
4:53 am 04:53 Clear 56 13.3 23 -5 28 28 Calm 30 1016 10 16.09344 0 0
5:53 am 05:53 Clear 57 13.9 21 -6.1 25 25 Calm 30 1016 10 16.09344 0 0
6:53 am 06:53 Sunny 59 15 17 -8.3 19 19 Calm 30 1016 10 16.09344 0 0
7:53 am 07:53 Sunny 61 16.1 17 -8.3 18 18 ESE 3 6 30.03 1017 10 16.09344 0 0
8:53 am 08:53 Sunny 63 17.2 18 -7.8 17 17 SE 6 9 30 1016 10 16.09344 0 0
9:53 am 09:53 Sunny 67 19.4 15 -9.4 13 13 Calm 30 1016 10 16.09344 0 0
10:53 am 10:53 Sunny 71 21.7 13 -10.6 10 10 SE 7 11 29.97 1015 10 16.09344 0 0
11:53 am 11:53 Sunny 72 22.2 13 -10.6 10 10 SSE 5 7 29.94 1014 10 16.09344 0 0
12:53 pm 12:53 Sunny 77 25 13 -10.6 9 9 SE 9 15 29.91 1013 10 16.09344 0 0
1:53 pm 13:53 Sunny 80 26.7 12 -11.1 7 7 N 7 11 29.85 1011 10 16.09344 0 0
2:53 pm 14:53 Sunny 82 27.8 5 -15 5 5 SSW 13 20 29.83 1010 10 16.09344 0 0
3:53 pm 15:53 Sunny 82 27.8 4 -15.6 5 5 SW 14 22 29.8 1009 10 16.09344 0 0
4:53 pm 16:53 Sunny 81 27.2 2 -16.7 4 4 SW 17 28 29.8 1009 10 16.09344 0 0
5:53 pm 17:53 Sunny 79 26.1 5 -15 6 6 WSW 16 26 29.8 1009 10 16.09344 0 0
6:53 pm 18:53 Sunny 78 25.6 6 -14.4 6 6 SSW 13 20 29.77 1008 10 16.09344 0 0
7:53 pm 19:53 Clear 77 25 7 -13.9 7 7 SSW 16 26 29.77 1008 10 16.09344 0 0
8:53 pm 20:53 Clear 75 23.9 9 -12.8 8 8 S 10 17 29.8 1009 10 16.09344 0 0
9:53 pm 21:53 Clear 74 23.3 10 -12.2 8 8 S 6 9 29.77 1008 10 16.09344 0 0
10:53 pm 22:53 Clear 74 23.3 12 -11.1 9 9 SW 6 9 29.77 1008 10 16.09344 0 0
11:53 pm 23:53 Clear 72 22.2 19 -7.2 13 13 SW 8 13 29.77 1008 10 16.09344 0 0

Powered by AerisWeather